Ibiza Aeropuerto en Baleares

latitud = 38° 52' 35''N | longitud = 0014° 23' 04''E
6 metros sobre el nivel del mar |

Fecha, hora, temperatura, viento dirección y velocidad, humedad y presión.

  • 24-02-2018 08:00:00 | 3.80°C | Norte |4.00 km/h | 93.00% | 1005.70 hPa
  • 24-02-2018 07:00:00 | 3.50°C | Norte |9.00 km/h | 95.00% | 1005.50 hPa
  • 24-02-2018 06:00:00 | 3.20°C | Nordeste |5.00 km/h | 93.00% | 1005.40 hPa
  • 24-02-2018 05:00:00 | 4.10°C | Noroeste |3.00 km/h | 94.00% | 1005.20 hPa
  • 24-02-2018 04:00:00 | 4.30°C | Noroeste |4.00 km/h | 92.00% | 1005.50 hPa
  • 24-02-2018 03:00:00 | 4.00°C | Norte |5.00 km/h | 92.00% | 1005.60 hPa
  • 24-02-2018 02:00:00 | 3.50°C | Norte |3.00 km/h | 92.00% | 1005.70 hPa
  • 24-02-2018 01:00:00 | 3.80°C | Noroeste |5.00 km/h | 94.00% | 1005.70 hPa
  • 24-02-2018 00:00:00 | 4.00°C | Noroeste |4.00 km/h | 91.00% | 1005.80 hPa
  • 23-02-2018 23:00:00 | 4.60°C | Norte |7.00 km/h | 90.00% | 1005.80 hPa
  • 23-02-2018 22:00:00 | 4.90°C | Noroeste |8.00 km/h | 89.00% | 1005.80 hPa
  • 23-02-2018 21:00:00 | 5.10°C | Noroeste |5.00 km/h | 89.00% | 1005.70 hPa
  • 23-02-2018 20:00:00 | 6.10°C | Noroeste |8.00 km/h | 87.00% | 1005.70 hPa
  • 23-02-2018 19:00:00 | 8.00°C | Norte |5.00 km/h | 78.00% | 1005.30 hPa
  • 23-02-2018 18:00:00 | 9.70°C | Nordeste |5.00 km/h | 69.00% | 1005.10 hPa
  • 23-02-2018 17:00:00 | 10.30°C | Este |8.00 km/h | 66.00% | 1004.90 hPa
  • 23-02-2018 16:00:00 | 9.80°C | Nordeste |9.00 km/h | 69.00% | 1004.90 hPa
  • 23-02-2018 15:00:00 | 10.00°C | Este |5.00 km/h | 70.00% | 1004.90 hPa
  • 23-02-2018 14:00:00 | 10.10°C | Este |10.00 km/h | 72.00% | 1005.00 hPa
  • 23-02-2018 13:00:00 | 10.80°C | Este |10.00 km/h | 66.00% | 1005.20 hPa
  • 23-02-2018 12:00:00 | 10.80°C | Este |12.00 km/h | 67.00% | 1005.50 hPa
  • 23-02-2018 11:00:00 | 9.70°C | Este |17.00 km/h | 71.00% | 1005.40 hPa
  • 23-02-2018 10:00:00 | 8.60°C | Nordeste |9.00 km/h | 75.00% | 1005.40 hPa
  • 23-02-2018 09:00:00 | 6.60°C | Norte |11.00 km/h | 91.00% | 1005.20 hPa
    • Datos gráficos mensuales de Ibiza Aeropuerto: